Argus, California
Current Conditions -  °F | °C
As of 5:56 PM on Friday 28 Nov 2014 (Local Time) from KNID Reporting Station
Clear Clear  
Wind Chill: 53°   Ceiling: Unl
Heat Index: 53°   Visibility: 10mi
Dew Point: 14°   Wind: 7mph
Humidity: 21%   Direction: 270°W
Pressure: 29.88"   Gusts: NA
Location:  35.6496°N, 117.375°W
Report Text: KNID 290156Z 27006KT 10SM CLR 12/M10 A2988 RMK AO2 SLP124 T01171100 $
Loading
Personal Weather Stations






























Interactive Weather Map New forecast layout! Learn more

10-Day Weather Forecast

Advertisements
Track Severe Weather on mobile